Time;durP1;ratioP1;P1;durP2;ratioP2;P2;SDS_P1;SDS_P2;PMS_P1;PMS_P2;Temp;Humidity;BMP_temperature;BMP_pressure;BME280_temperature;BME280_humidity;BME280_pressure;Samples;Min_cycle;Max_cycle;Signal;HPM_P1;HPM_P2
2023/10/10 00:02:19;;;;;;;4.03;1.83;;;;;;;12.58;49.75;95090.94;5090404;28;20059;-68
2023/10/10 00:04:47;;;;;;;4.22;1.98;;;;;;;12.49;49.78;95080.34;5092975;28;20405;-68
2023/10/10 00:07:14;;;;;;;4.07;1.50;;;;;;;12.34;50.45;95086.91;5092760;28;20040;-68
2023/10/10 00:09:43;;;;;;;4.18;2.03;;;;;;;12.30;50.27;95083.72;5071866;28;20033;-68
2023/10/10 00:12:10;;;;;;;4.47;2.00;;;;;;;12.17;50.40;95077.06;5072495;28;20058;-68
2023/10/10 00:14:35;;;;;;;4.55;2.00;;;;;;;12.62;50.16;95071.47;5079751;28;20043;-68
2023/10/10 00:17:01;;;;;;;8.70;1.92;;;;;;;12.42;50.61;95081.00;5093113;28;20302;-68
2023/10/10 00:21:52;;;;;;;5.40;1.63;;;;;;;12.30;50.96;95075.91;5092720;28;20510;-68
2023/10/10 00:24:20;;;;;;;4.50;1.92;;;;;;;12.35;50.77;95096.34;5075474;28;20040;-68
2023/10/10 00:26:47;;;;;;;4.03;1.88;;;;;;;11.58;53.37;95070.69;5093659;28;20099;-68
2023/10/10 00:29:13;;;;;;;6.72;1.88;;;;;;;11.81;52.67;95089.59;5058947;28;20126;-68
2023/10/10 00:31:38;;;;;;;6.53;1.95;;;;;;;11.90;52.18;95057.63;5054428;28;20029;-69
2023/10/10 00:34:07;;;;;;;8.90;2.15;;;;;;;12.03;52.09;95062.63;5072182;28;20528;-68
2023/10/10 00:36:35;;;;;;;4.88;1.80;;;;;;;12.12;51.86;95055.81;5072849;28;20025;-69
2023/10/10 00:44:18;;;;;;;6.38;1.98;;;;;;;12.36;51.11;95061.53;5092504;28;20459;-68
2023/10/10 00:46:56;;;;;;;6.00;2.42;;;;;;;12.32;51.33;95067.16;5091653;28;20062;-68
2023/10/10 00:49:25;;;;;;;4.57;2.10;;;;;;;12.36;51.29;95058.91;5075222;28;20044;-68
2023/10/10 00:51:53;;;;;;;8.43;2.78;;;;;;;12.43;51.26;95069.66;5075616;28;20028;-69
2023/10/10 00:56:52;;;;;;;4.95;2.08;;;;;;;12.26;51.66;95051.09;5063562;28;20551;-68
2023/10/10 00:59:18;;;;;;;5.10;2.60;;;;;;;12.39;51.45;95069.06;5074800;28;20033;-68
2023/10/10 01:01:43;;;;;;;4.70;2.00;;;;;;;12.34;51.79;95060.00;5073935;28;20049;-69
2023/10/10 01:04:11;;;;;;;4.88;1.80;;;;;;;12.50;50.94;95055.94;5075947;28;20082;-69
2023/10/10 01:06:41;;;;;;;5.72;2.28;;;;;;;12.49;51.90;95076.94;5075459;28;20052;-69
2023/10/10 01:09:21;;;;;;;5.57;2.03;;;;;;;12.52;51.39;95058.44;5093165;28;20111;-69
2023/10/10 01:11:49;;;;;;;8.63;2.10;;;;;;;12.57;51.49;95071.88;5092925;28;20032;-69
2023/10/10 01:14:18;;;;;;;5.82;2.33;;;;;;;12.47;51.16;95065.81;5073708;28;20119;-68
2023/10/10 01:16:47;;;;;;;6.10;2.08;;;;;;;12.22;51.36;95054.06;5092698;28;20525;-69
2023/10/10 01:19:17;;;;;;;4.82;1.88;;;;;;;12.57;50.80;95055.44;5074711;28;20070;-69
2023/10/10 01:21:50;;;;;;;8.35;2.10;;;;;;;12.47;51.20;95052.78;5091059;28;20032;-68
2023/10/10 01:24:17;;;;;;;4.45;2.00;;;;;;;12.44;51.86;95051.28;5091622;28;20072;-68
2023/10/10 01:26:50;;;;;;;5.25;1.80;;;;;;;12.40;52.36;95046.47;5092471;28;20044;-69
2023/10/10 01:31:45;;;;;;;4.65;2.10;;;;;;;12.59;52.51;95059.56;5079726;28;20501;-69
2023/10/10 01:34:30;;;;;;;5.68;2.30;;;;;;;12.55;52.43;95075.59;5091389;28;20062;-68
2023/10/10 01:36:57;;;;;;;4.40;2.50;;;;;;;12.53;52.40;95081.72;5071127;28;20089;-69
2023/10/10 01:39:28;;;;;;;7.35;2.15;;;;;;;12.44;52.56;95072.13;5070879;28;20143;-68
2023/10/10 01:41:54;;;;;;;5.45;2.35;;;;;;;12.38;53.30;95071.81;5071048;28;20628;-69
2023/10/10 01:44:22;;;;;;;6.45;2.50;;;;;;;12.58;52.49;95072.72;5054184;28;20124;-68
2023/10/10 01:46:47;;;;;;;5.65;2.00;;;;;;;12.49;52.46;95064.72;5071002;28;20524;-69
2023/10/10 01:49:14;;;;;;;6.65;2.20;;;;;;;11.98;54.24;95083.84;5057153;28;20028;-68
2023/10/10 01:51:42;;;;;;;5.30;2.55;;;;;;;12.18;53.24;95094.38;5090754;28;20486;-68
2023/10/10 01:54:29;;;;;;;6.18;2.70;;;;;;;12.08;53.42;95092.53;5074055;28;20066;-68
2023/10/10 01:56:55;;;;;;;4.57;2.08;;;;;;;12.06;53.94;95083.19;5091010;28;20024;-69
2023/10/10 01:59:24;;;;;;;8.57;2.50;;;;;;;12.00;53.96;95092.34;5089146;28;20028;-69
2023/10/10 02:01:51;;;;;;;6.22;2.50;;;;;;;11.85;54.42;95091.00;5074321;28;20056;-69
2023/10/10 02:04:21;;;;;;;7.95;2.80;;;;;;;11.89;54.02;95092.41;5090728;28;20550;-69
2023/10/10 02:06:55;;;;;;;6.45;2.50;;;;;;;12.05;54.39;95091.97;5090071;28;20036;-69
2023/10/10 02:11:54;;;;;;;4.60;2.40;;;;;;;12.13;54.73;95092.13;5070636;28;20506;-69
2023/10/10 02:14:26;;;;;;;4.43;2.17;;;;;;;12.16;54.76;95083.25;5053476;28;20033;-69
2023/10/10 02:16:54;;;;;;;8.55;2.35;;;;;;;12.09;54.70;95103.78;5058385;28;20036;-69
2023/10/10 02:19:40;;;;;;;4.78;2.22;;;;;;;12.05;54.98;95095.38;5053772;28;20052;-69
2023/10/10 02:22:22;;;;;;;5.88;2.60;;;;;;;12.22;54.62;95098.34;5070345;28;20036;-69
2023/10/10 02:25:08;;;;;;;8.95;2.75;;;;;;;12.13;54.50;95106.94;5070226;28;20032;-69
2023/10/10 02:27:34;;;;;;;7.05;2.30;;;;;;;12.11;54.64;95098.44;5070190;28;20129;-69
2023/10/10 02:30:04;;;;;;;7.28;2.60;;;;;;;11.98;54.96;95073.44;5069754;28;20024;-69
2023/10/10 02:32:29;;;;;;;6.07;2.67;;;;;;;12.18;54.74;95087.38;5071114;28;20035;-69
2023/10/10 02:35:10;;;;;;;7.82;2.60;;;;;;;11.94;55.48;95072.03;5075718;28;20032;-69
2023/10/10 02:37:41;;;;;;;5.53;2.35;;;;;;;12.08;55.48;95071.69;5091325;28;20510;-69
2023/10/10 02:40:16;;;;;;;8.93;2.70;;;;;;;12.19;55.56;95067.34;5090263;28;20139;-69
2023/10/10 02:43:10;;;;;;;5.20;2.60;;;;;;;12.30;54.93;95077.69;5090161;28;20040;-69
2023/10/10 02:45:36;;;;;;;7.88;2.58;;;;;;;12.35;54.11;95075.50;5089884;28;20051;-69
2023/10/10 02:48:07;;;;;;;7.00;2.80;;;;;;;12.39;54.77;95076.88;5091093;28;20024;-69
2023/10/10 02:50:39;;;;;;;9.13;2.60;;;;;;;12.61;54.91;95072.44;5091107;28;20494;-69
2023/10/10 02:53:07;;;;;;;5.43;2.38;;;;;;;12.62;54.95;95077.53;5065324;28;20414;-69
2023/10/10 02:55:35;;;;;;;5.95;2.20;;;;;;;13.04;52.20;95047.81;5069583;28;20043;-69
2023/10/10 02:58:00;;;;;;;5.35;2.53;;;;;;;13.06;52.84;95064.16;5070819;28;20032;-69
2023/10/10 03:02:54;;;;;;;7.15;2.55;;;;;;;12.97;53.36;95043.13;5070641;28;20572;-69
2023/10/10 03:05:43;;;;;;;7.70;2.50;;;;;;;13.14;53.29;95039.03;5052957;28;20068;-69
2023/10/10 03:08:13;;;;;;;7.85;2.42;;;;;;;13.32;53.18;95046.22;5069276;28;20521;-69
2023/10/10 03:10:45;;;;;;;6.93;2.60;;;;;;;13.45;53.79;95067.63;5069221;28;20029;-69
2023/10/10 03:13:28;;;;;;;5.53;2.08;;;;;;;13.64;52.82;95072.00;5086278;28;20029;-69
2023/10/10 03:16:15;;;;;;;6.57;2.30;;;;;;;13.91;53.04;95062.63;5069605;28;20585;-69
2023/10/10 03:32:31;;;;;;;3.55;1.70;;;;;;;14.52;51.87;95070.81;5094826;28;20508;-69
2023/10/10 03:34:57;;;;;;;7.05;2.85;;;;;;;14.52;51.70;95078.66;5088939;28;20551;-69
2023/10/10 03:39:54;;;;;;;6.90;2.22;;;;;;;14.38;52.35;95073.06;5075310;28;20027;-69
2023/10/10 05:24:23;;;;;;;5.20;2.50;;;;;;;16.07;51.84;95149.22;5088626;28;20066;-70
2023/10/10 05:26:49;;;;;;;6.82;3.28;;;;;;;15.98;52.02;95142.28;5091206;28;20035;-69
2023/10/10 05:29:19;;;;;;;10.05;2.92;;;;;;;15.99;52.15;95151.78;5086595;28;20032;-69
2023/10/10 05:31:48;;;;;;;7.13;3.33;;;;;;;15.83;52.20;95121.88;5077452;28;20024;-69
2023/10/10 05:34:16;;;;;;;8.13;2.75;;;;;;;16.03;51.99;95153.13;5038687;28;20037;-69
2023/10/10 05:36:44;;;;;;;6.65;2.70;;;;;;;16.22;51.50;95142.47;5071529;28;20032;-70
2023/10/10 05:39:17;;;;;;;6.35;3.08;;;;;;;16.11;51.72;95161.06;5091592;28;20497;-69
2023/10/10 05:41:43;;;;;;;7.57;2.50;;;;;;;16.14;51.41;95167.78;5070933;28;20123;-70
2023/10/10 05:44:09;;;;;;;9.52;3.72;;;;;;;16.12;51.75;95172.34;5057354;28;20024;-69
2023/10/10 05:46:35;;;;;;;7.28;2.50;;;;;;;16.05;51.85;95152.00;5087108;28;20414;-72
2023/10/10 05:49:00;;;;;;;7.68;2.53;;;;;;;16.11;51.77;95162.88;5087004;28;20028;-70
2023/10/10 05:51:26;;;;;;;6.93;2.58;;;;;;;15.96;51.73;95152.91;5084156;28;20032;-76
2023/10/10 05:53:51;;;;;;;9.77;2.53;;;;;;;16.26;51.61;95163.94;5086015;28;20030;-74
2023/10/10 05:56:17;;;;;;;5.38;2.60;;;;;;;16.07;51.49;95155.31;5083853;28;20550;-70
2023/10/10 05:58:43;;;;;;;4.70;2.78;;;;;;;16.03;51.83;95151.31;5084250;28;20616;-70
2023/10/10 06:01:12;;;;;;;8.75;2.78;;;;;;;16.05;52.06;95161.66;5085508;28;20155;-71
2023/10/10 06:03:38;;;;;;;7.85;2.70;;;;;;;16.20;51.87;95167.19;5078252;28;20032;-70
2023/10/10 06:06:04;;;;;;;7.10;2.58;;;;;;;16.24;51.54;95163.25;5086534;28;20050;-71
2023/10/10 06:08:31;;;;;;;10.38;3.28;;;;;;;16.36;51.57;95167.28;5090250;28;20497;-70
2023/10/10 06:10:57;;;;;;;7.00;2.60;;;;;;;16.40;51.33;95170.41;5086911;28;20028;-69
2023/10/10 06:13:23;;;;;;;7.70;2.58;;;;;;;16.49;51.09;95148.50;5083820;28;20493;-69
2023/10/10 06:15:50;;;;;;;8.80;2.92;;;;;;;16.70;51.14;95163.88;5080238;28;20498;-69
2023/10/10 06:18:18;;;;;;;9.80;2.45;;;;;;;17.03;50.27;95161.44;5081941;28;20477;-70
2023/10/10 06:20:44;;;;;;;6.97;2.28;;;;;;;16.87;50.45;95152.50;5079714;28;20063;-69
2023/10/10 06:23:20;;;;;;;5.97;2.40;;;;;;;17.08;50.21;95161.81;5057592;28;20089;-69
2023/10/10 06:25:46;;;;;;;7.35;3.00;;;;;;;17.14;50.02;95143.59;5070003;28;20036;-70
2023/10/10 06:28:23;;;;;;;7.18;2.08;;;;;;;17.62;49.28;95163.06;5081311;28;20027;-70
2023/10/10 06:30:52;;;;;;;5.47;2.47;;;;;;;18.31;47.38;95163.63;5091341;28;20492;-70
2023/10/10 06:33:19;;;;;;;8.40;2.78;;;;;;;18.15;47.71;95174.16;5075438;28;20479;-70
2023/10/10 06:35:52;;;;;;;7.28;2.33;;;;;;;18.27;47.39;95180.72;5073873;28;20540;-70
2023/10/10 06:38:23;;;;;;;6.22;2.63;;;;;;;18.69;46.79;95187.56;5082369;28;20101;-69
2023/10/10 06:40:53;;;;;;;5.55;2.30;;;;;;;19.03;45.60;95173.38;5074884;28;20139;-70
2023/10/10 06:43:21;;;;;;;7.60;2.25;;;;;;;19.59;44.36;95170.63;5069816;28;20113;-70
2023/10/10 06:45:54;;;;;;;5.47;2.33;;;;;;;19.74;44.07;95186.53;5070713;28;20522;-70
2023/10/10 06:48:23;;;;;;;7.22;2.47;;;;;;;19.57;43.96;95170.78;5069809;28;20059;-70
2023/10/10 06:50:49;;;;;;;7.35;2.33;;;;;;;19.35;44.40;95172.38;5072307;28;20070;-70
2023/10/10 06:53:36;;;;;;;6.20;2.42;;;;;;;19.25;44.68;95184.13;5088158;28;20024;-70
2023/10/10 06:56:17;;;;;;;6.97;2.40;;;;;;;19.14;44.94;95177.44;5087234;28;20725;-70
2023/10/10 06:58:46;;;;;;;7.72;2.50;;;;;;;19.26;44.85;95183.16;5071801;28;20115;-71
2023/10/10 07:01:11;;;;;;;8.13;2.60;;;;;;;19.11;45.52;95202.28;5067035;28;20507;-70
2023/10/10 07:03:41;;;;;;;12.40;2.60;;;;;;;19.17;45.49;95201.59;5067983;28;20029;-70
2023/10/10 07:06:08;;;;;;;5.80;2.00;;;;;;;18.84;46.08;95205.34;5082565;28;20119;-69
2023/10/10 07:08:34;;;;;;;10.05;2.50;;;;;;;18.68;46.73;95206.16;5068829;28;20403;-69
2023/10/10 07:11:00;;;;;;;8.68;2.85;;;;;;;18.77;46.21;95207.81;5074342;28;20418;-69
2023/10/10 07:13:29;;;;;;;5.63;2.55;;;;;;;18.96;45.71;95193.44;5077416;28;20103;-70
2023/10/10 07:15:58;;;;;;;6.50;2.70;;;;;;;18.78;46.49;95205.97;5077438;28;20039;-70
2023/10/10 07:18:23;;;;;;;6.03;2.55;;;;;;;18.62;46.80;95196.31;5062859;28;20110;-69
2023/10/10 07:21:09;;;;;;;10.45;2.40;;;;;;;18.88;46.16;95201.38;5077565;28;20055;-69
2023/10/10 07:23:42;;;;;;;8.00;2.30;;;;;;;18.75;46.52;95204.53;5064517;28;20032;-71
2023/10/10 07:26:20;;;;;;;6.82;2.20;;;;;;;18.73;46.70;95203.84;5088550;28;20036;-70
2023/10/10 07:28:49;;;;;;;12.43;3.08;;;;;;;18.59;46.92;95192.19;5087992;28;20509;-70
2023/10/10 07:31:17;;;;;;;7.03;2.47;;;;;;;18.69;46.84;95187.56;5088923;28;20039;-70
2023/10/10 07:33:44;;;;;;;6.93;2.60;;;;;;;18.71;46.57;95169.78;5086957;28;20449;-70
2023/10/10 07:36:13;;;;;;;5.93;2.03;;;;;;;18.56;47.04;95174.13;5082424;28;20093;-70
2023/10/10 07:38:39;;;;;;;6.18;2.33;;;;;;;18.48;47.22;95203.06;5068955;28;20025;-70
2023/10/10 07:41:04;;;;;;;9.02;2.58;;;;;;;18.17;47.66;95160.84;5085505;28;20032;-70
2023/10/10 07:43:34;;;;;;;4.80;2.50;;;;;;;18.38;47.40;95197.16;5087575;28;20475;-70
2023/10/10 07:46:13;;;;;;;7.05;2.72;;;;;;;18.06;48.30;95185.66;5066129;28;20432;-70
2023/10/10 07:48:44;;;;;;;10.07;2.35;;;;;;;18.15;48.68;95207.50;5090602;28;20123;-70
2023/10/10 07:51:09;;;;;;;5.60;2.80;;;;;;;17.99;48.42;95205.69;5089175;28;20028;-70
2023/10/10 07:53:42;;;;;;;7.65;2.40;;;;;;;17.95;48.71;95217.53;5069930;28;20032;-70
2023/10/10 07:56:08;;;;;;;8.27;2.88;;;;;;;17.90;49.09;95214.56;5071557;28;20449;-70
2023/10/10 07:58:56;;;;;;;6.53;2.67;;;;;;;17.96;49.13;95198.13;5079038;28;20036;-70
2023/10/10 08:01:23;;;;;;;7.93;2.70;;;;;;;18.38;48.47;95212.91;5073918;28;20486;-70
2023/10/10 08:03:49;;;;;;;10.70;2.80;;;;;;;18.63;48.00;95217.16;5083609;28;20028;-70
2023/10/10 08:06:21;;;;;;;9.63;3.03;;;;;;;18.78;47.76;95221.78;5054695;28;20391;-70
2023/10/10 08:09:18;;;;;;;9.48;2.40;;;;;;;18.86;47.23;95211.22;5071622;28;20042;-70
2023/10/10 08:11:38;;;;;;;10.23;2.97;;;;;;;18.77;47.11;95214.88;5068647;28;20049;-70
2023/10/10 08:14:07;;;;;;;6.53;2.72;;;;;;;18.73;47.52;95217.81;5085995;28;20052;-70
2023/10/10 08:16:35;;;;;;;7.65;3.50;;;;;;;18.77;46.91;95220.97;5067211;28;20044;-70
2023/10/10 08:19:04;;;;;;;9.32;3.00;;;;;;;18.70;47.08;95226.06;5074950;28;20043;-70
2023/10/10 08:21:36;;;;;;;5.80;2.67;;;;;;;18.60;47.72;95221.94;5090621;28;20063;-70
2023/10/10 08:24:02;;;;;;;10.35;3.20;;;;;;;18.29;48.20;95236.59;5090895;28;20085;-70
2023/10/10 08:26:29;;;;;;;7.10;2.85;;;;;;;18.28;48.28;95231.50;5063388;28;20044;-70
2023/10/10 08:28:55;;;;;;;10.82;3.05;;;;;;;18.14;48.81;95227.72;5070117;28;20020;-70
2023/10/10 08:31:22;;;;;;;6.85;2.95;;;;;;;18.27;48.61;95237.75;5090501;28;20051;-70
2023/10/10 08:33:48;;;;;;;7.68;3.03;;;;;;;17.95;49.13;95236.72;5091547;28;20032;-70
2023/10/10 08:36:23;;;;;;;6.25;2.92;;;;;;;18.01;48.88;95235.25;5084201;28;20039;-70
2023/10/10 08:38:52;;;;;;;8.20;3.40;;;;;;;17.97;49.13;95236.56;5074541;28;20497;-70
2023/10/10 08:41:22;;;;;;;14.10;3.88;;;;;;;17.92;49.38;95242.31;5078688;28;20136;-70
2023/10/10 08:43:53;;;;;;;9.65;3.28;;;;;;;17.79;49.80;95237.50;5087346;28;20032;-70
2023/10/10 08:46:21;;;;;;;;;;;;;;;17.84;49.75;95235.22;5082321;28;20151;-70
2023/10/10 08:48:46;;;;;;;9.68;3.80;;;;;;;17.85;49.63;95226.34;5082872;28;19917;-70
2023/10/10 08:51:12;;;;;;;8.43;3.30;;;;;;;17.84;49.78;95229.16;5066402;28;20137;-72
2023/10/10 08:53:38;;;;;;;10.63;3.70;;;;;;;17.90;49.99;95223.25;5080011;28;20032;-70
2023/10/10 08:56:04;;;;;;;10.77;3.47;;;;;;;18.12;49.45;95227.06;5079921;28;20033;-70
2023/10/10 08:58:31;;;;;;;13.48;3.88;;;;;;;18.05;49.41;95220.78;5049853;28;20040;-70
2023/10/10 09:01:00;;;;;;;9.23;3.40;;;;;;;18.02;49.23;95210.63;5075485;28;20055;-70
2023/10/10 09:03:26;;;;;;;10.50;4.18;;;;;;;18.04;49.66;95229.69;5074611;28;20060;-70
2023/10/10 09:05:52;;;;;;;8.40;3.60;;;;;;;17.95;49.65;95228.84;5084442;28;20032;-70
2023/10/10 09:08:18;;;;;;;11.73;3.38;;;;;;;17.86;50.14;95243.78;5081886;28;20497;-70
2023/10/10 09:10:46;;;;;;;7.75;3.08;;;;;;;17.78;49.73;95217.50;5083463;28;20029;-70
2023/10/10 09:13:11;;;;;;;11.50;3.33;;;;;;;17.87;49.83;95241.97;5088188;28;20020;-70
2023/10/10 09:15:40;;;;;;;6.03;2.95;;;;;;;17.77;50.15;95222.88;5078495;28;20117;-70
2023/10/10 09:18:17;;;;;;;5.70;2.92;;;;;;;17.75;50.13;95230.94;5080120;28;20032;-70
2023/10/10 09:20:45;;;;;;;10.63;3.25;;;;;;;17.77;50.01;95249.13;5067105;28;20512;-70
2023/10/10 09:23:21;;;;;;;6.88;3.00;;;;;;;17.78;50.26;95219.28;5069956;28;20032;-70
2023/10/10 09:25:57;;;;;;;9.85;3.17;;;;;;;17.85;50.49;95236.06;5082526;28;20395;-72
2023/10/10 09:28:32;;;;;;;6.32;3.30;;;;;;;18.02;49.72;95236.91;5089472;28;20039;-72
2023/10/10 09:31:03;;;;;;;7.32;3.13;;;;;;;18.01;49.68;95220.31;5077658;28;20036;-74
2023/10/10 09:33:30;;;;;;;5.30;2.65;;;;;;;17.96;49.92;95225.22;5087246;28;20024;-74
2023/10/10 09:36:08;;;;;;;7.32;2.92;;;;;;;17.90;49.94;95191.72;5063414;28;20091;-74
2023/10/10 09:38:35;;;;;;;9.85;3.15;;;;;;;18.04;49.63;95235.75;5059784;28;20078;-74
2023/10/10 09:41:11;;;;;;;7.22;3.10;;;;;;;18.21;49.22;95226.06;5061117;28;20489;-74
2023/10/10 09:43:49;;;;;;;6.80;2.78;;;;;;;18.13;49.39;95226.06;5054103;28;20071;-74
2023/10/10 09:46:19;;;;;;;4.60;2.90;;;;;;;18.23;49.71;95221.47;5072680;28;20475;-74
2023/10/10 09:52:47;;;;;;;6.63;2.92;;;;;;;18.01;49.29;95193.22;5073839;28;20040;-75
2023/10/10 09:54:17;;;;;;;9.43;3.22;;;;;;;18.34;49.32;95224.78;5079342;28;20044;-72
2023/10/10 09:56:47;;;;;;;4.97;3.13;;;;;;;18.33;48.53;95223.13;5072054;28;20031;-72
2023/10/10 09:59:16;;;;;;;9.47;3.00;;;;;;;18.16;49.19;95212.59;5070586;28;20035;-73
2023/10/10 10:01:59;;;;;;;8.48;2.72;;;;;;;18.25;49.00;95216.06;5055705;28;20139;-72
2023/10/10 10:04:28;;;;;;;4.82;2.33;;;;;;;18.21;49.18;95199.78;5074777;28;20103;-72
2023/10/10 10:07:13;;;;;;;7.38;2.20;;;;;;;18.14;49.37;95205.88;5087117;28;20032;-71
2023/10/10 10:10:09;;;;;;;4.15;2.33;;;;;;;18.28;48.46;95202.59;5086523;28;20067;-72
2023/10/10 10:13:02;;;;;;;6.43;2.33;;;;;;;18.08;49.20;95213.44;5074634;28;20051;-70
2023/10/10 10:16:15;;;;;;;6.05;2.60;;;;;;;18.37;48.93;95208.66;5083557;28;20120;-71
2023/10/10 10:18:45;;;;;;;7.65;2.30;;;;;;;18.41;49.60;95199.44;5077251;28;20052;-71
2023/10/10 10:21:27;;;;;;;6.47;2.40;;;;;;;18.49;49.12;95204.69;5036966;28;20033;-71
2023/10/10 10:23:56;;;;;;;3.97;2.25;;;;;;;18.52;48.00;95178.06;5069541;28;20028;-71
2023/10/10 10:26:41;;;;;;;4.47;2.35;;;;;;;18.91;48.12;95201.84;5069117;28;20499;-71
2023/10/10 10:29:16;;;;;;;7.47;2.30;;;;;;;18.99;47.79;95187.84;5070219;28;20422;-71
2023/10/10 10:31:57;;;;;;;8.27;2.00;;;;;;;18.87;47.36;95157.63;5067836;28;20101;-71
2023/10/10 10:34:31;;;;;;;6.05;1.65;;;;;;;19.16;46.92;95188.59;5053199;28;20033;-71
2023/10/10 10:37:12;;;;;;;6.15;2.13;;;;;;;19.29;46.15;95198.59;5067237;28;20032;-71
2023/10/10 10:39:46;;;;;;;3.42;2.13;;;;;;;19.21;46.39;95194.19;5067889;28;20465;-71
2023/10/10 10:42:15;;;;;;;7.80;2.03;;;;;;;19.19;47.10;95199.63;5051680;28;20115;-71
2023/10/10 10:44:53;;;;;;;5.13;2.10;;;;;;;19.07;47.30;95195.72;5035743;28;20039;-71
2023/10/10 10:47:46;;;;;;;4.43;2.17;;;;;;;19.06;47.12;95194.09;5069855;28;20036;-71
2023/10/10 10:50:29;;;;;;;6.15;2.40;;;;;;;19.04;47.55;95190.78;5070835;28;20403;-71
2023/10/10 10:53:07;;;;;;;5.68;1.90;;;;;;;19.02;47.22;95191.94;5070799;28;20513;-71
2023/10/10 10:55:39;;;;;;;6.65;2.17;;;;;;;19.14;47.10;95182.72;5069734;28;20065;-71
2023/10/10 11:03:34;;;;;;;7.85;2.70;;;;;;;18.77;47.54;95175.41;5069940;28;20038;-71
2023/10/10 11:06:00;;;;;;;3.97;2.15;;;;;;;18.73;47.59;95174.91;5069494;28;20437;-71
2023/10/10 11:08:51;;;;;;;3.40;1.98;;;;;;;18.70;47.54;95183.94;5036123;28;20033;-71
2023/10/10 11:14:00;;;;;;;4.00;2.00;;;;;;;18.51;48.06;95174.59;5069933;28;20052;-71
2023/10/10 11:16:39;;;;;;;4.50;2.35;;;;;;;18.58;48.04;95182.63;5070638;28;20517;-71
2023/10/10 11:21:49;;;;;;;4.80;2.10;;;;;;;18.45;48.47;95190.25;5070757;28;20104;-71
2023/10/10 11:24:25;;;;;;;6.53;2.08;;;;;;;18.52;49.55;95189.38;5070578;28;20562;-71
2023/10/10 11:29:34;;;;;;;5.80;2.85;;;;;;;18.35;49.78;95171.19;5070925;28;20067;-71
2023/10/10 11:32:11;;;;;;;6.68;2.28;;;;;;;18.19;50.23;95146.56;5069313;28;20086;-72
2023/10/10 11:34:46;;;;;;;4.95;2.45;;;;;;;18.28;50.80;95165.78;5069505;28;20075;-71
2023/10/10 11:37:31;;;;;;;5.53;2.55;;;;;;;18.27;52.84;95179.88;5069190;28;20037;-71
2023/10/10 11:40:30;;;;;;;7.53;2.38;;;;;;;18.07;50.80;95177.59;5054073;28;20043;-71
2023/10/10 11:43:06;;;;;;;4.63;2.40;;;;;;;17.70;54.03;95183.28;5069358;28;20490;-72
2023/10/10 11:45:39;;;;;;;5.22;2.33;;;;;;;17.95;51.26;95176.28;5069153;28;20024;-71
2023/10/10 11:48:12;;;;;;;9.60;2.95;;;;;;;18.14;49.74;95171.69;5071197;28;20039;-72
2023/10/10 11:50:45;;;;;;;6.28;2.97;;;;;;;18.09;51.63;95180.06;5073047;28;20580;-71
2023/10/10 11:53:15;;;;;;;8.77;2.55;;;;;;;17.54;54.39;95181.44;5072981;28;20110;-71
2023/10/10 11:55:41;;;;;;;5.97;2.50;;;;;;;17.41;54.68;95187.19;5073065;28;20036;-71
2023/10/10 11:58:07;;;;;;;5.03;2.40;;;;;;;17.13;55.32;95176.09;5074073;28;20021;-71
2023/10/10 12:00:42;;;;;;;7.18;2.40;;;;;;;17.30;54.36;95176.13;5072510;28;20060;-71
2023/10/10 12:03:35;;;;;;;5.95;2.25;;;;;;;17.48;54.15;95181.28;5057479;28;20039;-71
2023/10/10 12:06:00;;;;;;;5.95;2.33;;;;;;;17.31;52.63;95165.47;5072869;28;20029;-71
2023/10/10 12:08:26;;;;;;;4.97;2.30;;;;;;;17.54;52.67;95178.81;5072663;28;20089;-71
2023/10/10 12:10:52;;;;;;;7.47;2.50;;;;;;;17.47;52.26;95182.25;5072631;28;20040;-71
2023/10/10 12:15:55;;;;;;;8.85;2.45;;;;;;;17.71;51.93;95182.28;5072815;28;20098;-71
2023/10/10 12:18:21;;;;;;;5.15;2.65;;;;;;;17.77;51.61;95171.13;5055810;28;20028;-71
2023/10/10 12:20:47;;;;;;;4.88;2.45;;;;;;;17.82;51.32;95168.88;5072336;28;20525;-71
2023/10/10 12:23:13;;;;;;;7.47;2.60;;;;;;;17.84;51.71;95172.16;5055840;28;20037;-71
2023/10/10 12:25:41;;;;;;;7.60;2.30;;;;;;;18.12;51.33;95177.09;5055571;28;20041;-71
2023/10/10 12:28:10;;;;;;;4.35;2.45;;;;;;;18.10;51.35;95173.81;5072266;28;20100;-71
2023/10/10 12:30:40;;;;;;;6.53;2.60;;;;;;;18.13;51.39;95172.66;5072249;28;20043;-71
2023/10/10 12:33:12;;;;;;;7.07;2.87;;;;;;;17.89;51.71;95152.47;5072292;28;20028;-71
2023/10/10 12:35:42;;;;;;;7.10;3.22;;;;;;;18.05;51.65;95168.22;5072512;28;20047;-72
2023/10/10 12:38:08;;;;;;;7.88;2.90;;;;;;;18.17;51.23;95166.94;5072217;28;20082;-72
2023/10/10 12:40:34;;;;;;;4.90;2.63;;;;;;;18.14;51.32;95161.19;5055278;28;20043;-72
2023/10/10 12:43:07;;;;;;;6.78;2.63;;;;;;;18.16;51.11;95161.81;5072074;28;20020;-71
2023/10/10 12:45:33;;;;;;;6.97;2.88;;;;;;;18.05;51.09;95162.97;5055469;28;20035;-71
2023/10/10 12:47:59;;;;;;;6.22;2.40;;;;;;;18.21;50.77;95168.22;5055062;28;20422;-72
2023/10/10 12:50:32;;;;;;;6.13;2.47;;;;;;;18.08;50.72;95173.19;5055125;28;20032;-71
2023/10/10 12:53:07;;;;;;;9.00;2.58;;;;;;;18.05;51.09;95165.59;5071976;28;20024;-71
2023/10/10 12:55:35;;;;;;;6.55;2.83;;;;;;;18.17;51.01;95166.94;5071869;28;20032;-71
2023/10/10 12:58:10;;;;;;;7.57;3.00;;;;;;;18.08;51.19;95171.38;5073005;28;20032;-72
2023/10/10 13:00:36;;;;;;;5.45;2.88;;;;;;;17.99;50.95;95171.53;5055700;28;20069;-72
2023/10/10 13:03:01;;;;;;;5.95;2.97;;;;;;;17.91;51.41;95177.59;5071566;28;20516;-71
2023/10/10 13:05:27;;;;;;;5.45;2.92;;;;;;;17.95;51.33;95160.53;5072746;28;20032;-71
2023/10/10 13:07:58;;;;;;;9.07;3.20;;;;;;;17.98;51.53;95165.44;5054774;28;20028;-71
2023/10/10 13:10:30;;;;;;;10.55;3.63;;;;;;;18.10;51.40;95176.44;5071545;28;20455;-71
2023/10/10 13:12:55;;;;;;;7.25;2.88;;;;;;;17.82;50.65;95166.25;5072678;28;20029;-71
2023/10/10 13:15:46;;;;;;;9.85;3.38;;;;;;;17.90;50.95;95151.47;5071418;28;20039;-71
2023/10/10 13:18:19;;;;;;;10.65;2.72;;;;;;;17.83;51.24;95170.53;5072575;28;20035;-71
2023/10/10 13:20:45;;;;;;;6.18;2.42;;;;;;;17.68;50.64;95161.59;5071348;28;20037;-71
2023/10/10 13:23:10;;;;;;;4.65;2.58;;;;;;;17.83;50.30;95169.72;5037993;28;20069;-71
2023/10/10 13:25:39;;;;;;;4.13;2.50;;;;;;;17.95;50.81;95175.47;5071108;28;20418;-71
2023/10/10 13:28:09;;;;;;;5.65;2.35;;;;;;;18.02;51.27;95169.38;5072362;28;20056;-72
2023/10/10 13:30:38;;;;;;;6.03;2.37;;;;;;;17.92;50.69;95170.53;5071163;28;20108;-71
2023/10/10 13:33:06;;;;;;;4.03;2.35;;;;;;;17.92;50.99;95157.41;5071022;28;20278;-71
2023/10/10 13:35:31;;;;;;;5.13;2.40;;;;;;;17.97;51.18;95169.06;5070995;28;20103;-71
2023/10/10 13:37:56;;;;;;;6.63;3.28;;;;;;;18.11;51.35;95157.06;5070993;28;20032;-71
2023/10/10 13:40:22;;;;;;;9.77;4.32;;;;;;;18.12;51.04;95137.69;5072064;28;20028;-71
2023/10/10 13:42:48;;;;;;;11.40;5.28;;;;;;;18.24;51.00;95167.91;5070835;28;20023;-71
2023/10/10 13:45:19;;;;;;;8.60;4.55;;;;;;;18.24;51.38;95167.91;5054227;28;20074;-72
2023/10/10 13:47:48;;;;;;;8.38;5.25;;;;;;;18.24;51.55;95161.81;5072117;28;20035;-72
2023/10/10 13:50:40;;;;;;;14.00;6.55;;;;;;;18.35;50.84;95145.69;5070960;28;20098;-72
2023/10/10 13:53:06;;;;;;;6.93;4.00;;;;;;;18.37;49.28;95169.22;5071936;28;20021;-71
2023/10/10 13:55:34;;;;;;;8.13;3.55;;;;;;;18.19;49.18;95159.69;5053932;28;20082;-72
2023/10/10 13:57:59;;;;;;;7.07;3.38;;;;;;;18.33;48.99;95170.53;5070394;28;20032;-72
2023/10/10 14:00:33;;;;;;;9.10;5.20;;;;;;;18.26;49.98;95163.28;5071438;28;20059;-71
2023/10/10 14:03:04;;;;;;;7.85;4.05;;;;;;;18.28;49.41;95168.41;5071578;28;20025;-72
2023/10/10 14:05:34;;;;;;;6.60;3.10;;;;;;;18.16;49.45;95169.72;5071564;28;20429;-71
2023/10/10 14:08:03;;;;;;;6.90;2.80;;;;;;;18.18;49.28;95176.44;5070356;28;20025;-72
2023/10/10 14:10:35;;;;;;;8.90;2.97;;;;;;;18.05;48.93;95158.56;5069725;28;20247;-71
2023/10/10 14:13:18;;;;;;;9.95;2.75;;;;;;;18.18;49.25;95178.25;5070081;28;20029;-71
2023/10/10 14:15:54;;;;;;;6.63;2.58;;;;;;;18.06;48.64;95143.59;5071447;28;20024;-71
2023/10/10 14:18:20;;;;;;;5.68;2.72;;;;;;;18.31;48.29;95175.97;5071460;28;20064;-71
2023/10/10 14:20:47;;;;;;;8.07;2.40;;;;;;;18.03;48.83;95164.97;5071445;28;20035;-71
2023/10/10 14:23:14;;;;;;;5.28;2.47;;;;;;;18.09;48.57;95180.06;5070109;28;20427;-71
2023/10/10 14:25:45;;;;;;;6.40;2.50;;;;;;;18.11;48.69;95179.88;5071118;28;20025;-72
2023/10/10 14:28:16;;;;;;;6.95;2.00;;;;;;;18.07;48.91;95182.03;5054355;28;20078;-71